← Previous April 15, 2024 10:31 AM

NXUS99 KMPX 101436
WRKTAF

TAF AMD
KMSP 101431Z 1015/1118 22006KT P6SM BKN150
     FM101700 25010KT P6SM SCT100
     FM110000 28005KT P6SM SCT100
     FM110800 32008KT P6SM BKN120
     FM111300 33013G23KT P6SM BKN025=